Terminal Aerodrome Forecast
Issued by NWS

Home | Current Version | Previous Version | Text Only | Print | Product List | Glossary Off
Versions: 1 2 3 4 5 6 7 8 9 10 11 12 13 14 15 16 17

606
FTUS43 KGRB 061734
TAFCWA
TAF
KCWA 061734Z 0618/0718 25008KT P6SM BKN012
     FM062200 23008KT P6SM OVC009
     FM070100 20011KT P6SM BKN011 OVC100
     FM070600 20008KT P6SM BKN100
     FM071200 22011G15KT P6SM BKN060 OVC090=

USA.gov is the U.S. government's official web portal to all federal, state and local government web resources and services.